Time;durP1;ratioP1;P1;durP2;ratioP2;P2;SDS_P1;SDS_P2;PMS_P1;PMS_P2;Temp;Humidity;BMP_temperature;BMP_pressure;BME280_temperature;BME280_humidity;BME280_pressure;Samples;Min_cycle;Max_cycle;Signal;HPM_P1;HPM_P2
2021/03/19 00:01:25;;;;;;;8.10;2.40;;;4.10;92.30;;;;;;4917621;29;20084;-84
2021/03/19 00:03:51;;;;;;;7.38;2.40;;;4.10;92.40;;;;;;4917415;29;20126;-84
2021/03/19 00:06:17;;;;;;;8.25;2.35;;;4.10;92.40;;;;;;4918343;29;20051;-85
2021/03/19 00:08:43;;;;;;;7.25;2.45;;;4.10;92.50;;;;;;4918610;29;20083;-84
2021/03/19 00:11:08;;;;;;;5.90;2.10;;;4.00;92.50;;;;;;4917565;29;20079;-84
2021/03/19 00:13:34;;;;;;;11.40;3.13;;;4.00;92.50;;;;;;4918575;29;20095;-84
2021/03/19 00:16:00;;;;;;;7.82;2.10;;;4.00;92.40;;;;;;4917592;29;20056;-84
2021/03/19 00:18:25;;;;;;;6.97;2.80;;;4.00;92.40;;;;;;4917547;29;20378;-84
2021/03/19 00:20:51;;;;;;;4.93;1.90;;;3.90;92.50;;;;;;4918463;29;20127;-84
2021/03/19 00:23:18;;;;;;;7.65;2.30;;;3.90;92.40;;;;;;4917486;29;20090;-85
2021/03/19 00:25:44;;;;;;;6.07;2.28;;;3.90;92.40;;;;;;4917630;29;20514;-84
2021/03/19 00:28:14;;;;;;;11.23;2.83;;;3.90;92.50;;;;;;4917789;29;20518;-84
2021/03/19 00:30:42;;;;;;;9.23;2.80;;;3.80;92.60;;;;;;4918135;29;20056;-84
2021/03/19 00:33:08;;;;;;;7.30;2.33;;;3.80;92.60;;;;;;4916851;29;20161;-84
2021/03/19 00:35:34;;;;;;;6.00;2.05;;;3.80;92.70;;;;;;4918023;29;20131;-84
2021/03/19 00:38:00;;;;;;;7.38;2.13;;;3.80;92.70;;;;;;4917877;29;20131;-84
2021/03/19 00:40:28;;;;;;;9.23;2.47;;;3.80;92.70;;;;;;4917070;29;20052;-85
2021/03/19 00:42:54;;;;;;;8.75;2.38;;;3.80;92.70;;;;;;4917729;29;20088;-84
2021/03/19 00:45:21;;;;;;;7.82;2.13;;;3.80;92.60;;;;;;4916801;29;20134;-84
2021/03/19 00:47:47;;;;;;;8.63;2.80;;;3.70;92.60;;;;;;4917765;29;20044;-84
2021/03/19 00:50:15;;;;;;;7.05;2.28;;;3.70;92.60;;;;;;4917489;29;20052;-84
2021/03/19 00:52:41;;;;;;;6.03;2.20;;;3.70;92.60;;;;;;4916998;29;20059;-84
2021/03/19 00:55:10;;;;;;;7.50;2.28;;;3.70;92.60;;;;;;4917723;29;20135;-84
2021/03/19 00:57:39;;;;;;;8.73;2.40;;;3.60;92.80;;;;;;4917737;29;20064;-84
2021/03/19 01:00:07;;;;;;;8.10;2.40;;;3.60;92.50;;;;;;4916266;29;20493;-83
2021/03/19 01:02:33;;;;;;;6.82;2.20;;;3.60;92.50;;;;;;4905982;29;20134;-85
2021/03/19 01:05:03;;;;;;;6.13;2.15;;;3.50;92.50;;;;;;4917100;29;20589;-85
2021/03/19 01:07:28;;;;;;;7.40;2.28;;;3.50;92.50;;;;;;4916415;29;20472;-84
2021/03/19 01:09:54;;;;;;;7.53;2.17;;;3.50;92.40;;;;;;4917374;29;20080;-84
2021/03/19 01:12:20;;;;;;;7.45;2.25;;;3.40;92.30;;;;;;4917024;29;20496;-84
2021/03/19 01:14:45;;;;;;;6.35;2.17;;;3.40;92.30;;;;;;4916639;29;20048;-84
2021/03/19 01:17:11;;;;;;;7.60;2.22;;;3.30;92.30;;;;;;4916967;29;20068;-84
2021/03/19 01:19:37;;;;;;;5.65;2.10;;;3.40;92.40;;;;;;4917072;29;20099;-84
2021/03/19 01:22:03;;;;;;;7.05;2.45;;;3.30;92.40;;;;;;4915795;29;20062;-84
2021/03/19 01:24:28;;;;;;;7.38;2.35;;;3.30;92.30;;;;;;4916994;29;20056;-85
2021/03/19 01:26:54;;;;;;;6.43;2.10;;;3.30;92.40;;;;;;4916744;29;20063;-85
2021/03/19 01:29:20;;;;;;;6.95;2.00;;;3.30;92.40;;;;;;4915485;29;20416;-85
2021/03/19 01:31:46;;;;;;;6.57;2.25;;;3.30;92.50;;;;;;4916870;29;20044;-85
2021/03/19 01:34:13;;;;;;;7.28;2.50;;;3.30;92.40;;;;;;4916277;29;20409;-85
2021/03/19 01:36:38;;;;;;;7.55;2.58;;;3.20;92.50;;;;;;4916461;29;20081;-85
2021/03/19 01:39:04;;;;;;;7.75;2.53;;;3.20;92.60;;;;;;4916927;29;20059;-83
2021/03/19 01:41:30;;;;;;;10.07;2.47;;;3.20;92.70;;;;;;4916372;29;20059;-83
2021/03/19 01:44:07;;;;;;;9.00;2.35;;;3.20;92.70;;;;;;4916533;29;20111;-83
2021/03/19 01:47:10;;;;;;;5.55;2.08;;;3.20;92.80;;;;;;4916338;29;20461;-83
2021/03/19 01:50:14;;;;;;;7.47;2.25;;;3.20;92.70;;;;;;4916160;29;20048;-85
2021/03/19 01:53:18;;;;;;;7.80;2.50;;;3.10;92.70;;;;;;4916815;29;20052;-85
2021/03/19 01:56:21;;;;;;;7.63;2.20;;;3.10;92.70;;;;;;4916259;29;20058;-85
2021/03/19 01:59:24;;;;;;;6.03;1.88;;;3.10;92.70;;;;;;4916935;29;20052;-83
2021/03/19 02:02:27;;;;;;;7.90;2.22;;;3.10;92.60;;;;;;4916227;29;20067;-84
2021/03/19 02:05:30;;;;;;;9.15;2.65;;;3.00;92.40;;;;;;4897194;29;20127;-83
2021/03/19 02:08:49;;;;;;;6.97;2.10;;;3.00;92.40;;;;;;4897994;29;20072;-83
2021/03/19 02:11:52;;;;;;;8.65;2.00;;;3.00;92.40;;;;;;4838965;29;20056;-84
2021/03/19 02:14:55;;;;;;;7.05;2.05;;;3.00;92.40;;;;;;4897622;29;20184;-84
2021/03/19 02:17:58;;;;;;;6.03;2.20;;;2.90;92.40;;;;;;4896844;29;20049;-84
2021/03/19 02:21:01;;;;;;;6.45;1.98;;;2.90;92.40;;;;;;4897216;29;20064;-85
2021/03/19 02:24:04;;;;;;;5.40;2.03;;;2.90;92.40;;;;;;4897105;29;20045;-85
2021/03/19 02:27:07;;;;;;;6.82;2.15;;;2.90;92.40;;;;;;4897170;29;20569;-84
2021/03/19 02:30:10;;;;;;;7.00;2.47;;;2.80;92.30;;;;;;4897409;29;20055;-84
2021/03/19 02:32:36;;;;;;;8.85;2.00;;;2.80;92.30;;;;;;4898303;29;20053;-84
2021/03/19 02:35:07;;;;;;;5.78;2.05;;;2.80;92.20;;;;;;4916593;29;20051;-84
2021/03/19 02:37:35;;;;;;;7.93;2.03;;;2.80;92.20;;;;;;4915117;29;20056;-83
2021/03/19 02:40:01;;;;;;;7.20;2.38;;;2.70;92.10;;;;;;4917544;29;20482;-84
2021/03/19 02:42:31;;;;;;;7.05;1.70;;;2.70;92.10;;;;;;4919840;29;20388;-84
2021/03/19 02:44:58;;;;;;;11.73;2.70;;;2.70;92.10;;;;;;4919272;29;20048;-85
2021/03/19 02:47:24;;;;;;;8.00;2.10;;;2.70;92.20;;;;;;4919592;29;20047;-84
2021/03/19 02:49:49;;;;;;;7.53;2.22;;;2.70;92.20;;;;;;4920047;29;20408;-83
2021/03/19 02:52:17;;;;;;;8.27;2.33;;;2.70;92.20;;;;;;4918952;29;20064;-83
2021/03/19 02:54:43;;;;;;;5.15;2.00;;;2.70;92.20;;;;;;4919344;29;20052;-84
2021/03/19 02:57:09;;;;;;;6.35;2.25;;;2.60;92.20;;;;;;4919422;29;20420;-84
2021/03/19 02:59:34;;;;;;;7.50;2.60;;;2.70;92.20;;;;;;4918580;29;20052;-83
2021/03/19 03:02:00;;;;;;;7.00;2.35;;;2.60;92.30;;;;;;4919228;29;20119;-84
2021/03/19 03:04:26;;;;;;;6.97;2.50;;;2.60;92.50;;;;;;4919458;29;20048;-84
2021/03/19 03:06:55;;;;;;;7.65;2.28;;;2.60;92.60;;;;;;4918761;29;20051;-85
2021/03/19 03:09:27;;;;;;;9.43;2.60;;;2.60;92.70;;;;;;4918834;29;20087;-84
2021/03/19 03:11:54;;;;;;;8.02;2.20;;;2.70;92.80;;;;;;4919666;29;20049;-84
2021/03/19 03:14:25;;;;;;;8.10;2.40;;;2.60;92.80;;;;;;4918494;29;20048;-84
2021/03/19 03:16:52;;;;;;;8.80;2.45;;;2.60;92.90;;;;;;4919245;29;20134;-84
2021/03/19 03:19:21;;;;;;;8.05;2.60;;;2.60;92.90;;;;;;4919004;29;20485;-84
2021/03/19 03:21:47;;;;;;;9.88;3.28;;;2.60;92.90;;;;;;4918786;29;20083;-84
2021/03/19 03:24:14;;;;;;;7.18;2.50;;;2.60;92.90;;;;;;4919191;29;20052;-83
2021/03/19 03:26:42;;;;;;;8.50;2.40;;;2.60;92.80;;;;;;4919213;29;20079;-84
2021/03/19 03:29:10;;;;;;;7.57;2.70;;;2.60;92.80;;;;;;4901792;29;20048;-84
2021/03/19 03:31:37;;;;;;;5.75;2.33;;;2.60;92.80;;;;;;4919327;29;20075;-85
2021/03/19 03:34:04;;;;;;;6.47;2.53;;;2.50;92.80;;;;;;4918719;29;20095;-84
2021/03/19 03:36:32;;;;;;;7.07;2.20;;;2.50;92.70;;;;;;4918619;29;20453;-84
2021/03/19 03:38:59;;;;;;;8.77;2.28;;;2.50;92.60;;;;;;4919173;29;20075;-84
2021/03/19 03:41:27;;;;;;;7.78;2.45;;;2.50;92.60;;;;;;4918216;29;20102;-84
2021/03/19 03:43:54;;;;;;;8.18;2.50;;;2.50;92.60;;;;;;4918925;29;20086;-84
2021/03/19 03:46:23;;;;;;;8.35;2.70;;;2.40;92.60;;;;;;4919273;29;20180;-84
2021/03/19 03:48:50;;;;;;;6.70;2.47;;;2.40;92.60;;;;;;4918174;29;20084;-84
2021/03/19 03:51:17;;;;;;;7.10;2.58;;;2.40;92.60;;;;;;4917614;29;20531;-84
2021/03/19 03:53:43;;;;;;;10.07;2.35;;;2.40;92.60;;;;;;4918932;29;20048;-84
2021/03/19 03:56:13;;;;;;;6.32;2.60;;;2.40;92.50;;;;;;4917478;29;20087;-84
2021/03/19 03:58:40;;;;;;;6.93;2.60;;;2.30;92.50;;;;;;4918875;29;20091;-83
2021/03/19 04:01:07;;;;;;;6.40;2.40;;;2.30;92.50;;;;;;4918755;29;20083;-84
2021/03/19 04:03:35;;;;;;;5.72;2.30;;;2.30;92.50;;;;;;4917541;29;20087;-83
2021/03/19 04:06:02;;;;;;;8.30;2.67;;;2.30;92.50;;;;;;4918994;29;20502;-83
2021/03/19 04:08:29;;;;;;;6.85;2.58;;;2.30;92.40;;;;;;4918360;29;20399;-83
2021/03/19 04:11:00;;;;;;;6.47;2.40;;;2.20;92.40;;;;;;4917920;29;20476;-86
2021/03/19 04:13:28;;;;;;;5.53;2.00;;;2.20;92.40;;;;;;4918394;29;20081;-83
2021/03/19 04:15:56;;;;;;;6.88;2.42;;;2.20;92.30;;;;;;4918464;29;20052;-83
2021/03/19 04:18:23;;;;;;;6.97;2.60;;;2.20;92.30;;;;;;4917603;29;20082;-83
2021/03/19 04:20:52;;;;;;;7.57;2.50;;;2.20;92.30;;;;;;4918587;29;20087;-83
2021/03/19 04:23:19;;;;;;;9.15;2.65;;;2.20;92.40;;;;;;4917629;29;20508;-83
2021/03/19 04:25:45;;;;;;;5.78;2.70;;;2.20;92.40;;;;;;4918426;29;20088;-83
2021/03/19 04:28:17;;;;;;;9.00;2.50;;;2.20;92.50;;;;;;4918088;29;20094;-84
2021/03/19 04:30:45;;;;;;;8.85;2.70;;;2.10;92.50;;;;;;4917463;29;20052;-84
2021/03/19 04:33:15;;;;;;;8.23;2.95;;;2.10;92.50;;;;;;4917512;29;20083;-84
2021/03/19 04:35:42;;;;;;;7.43;3.05;;;2.10;92.50;;;;;;4917922;29;20462;-83
2021/03/19 04:38:13;;;;;;;7.93;2.80;;;2.10;92.70;;;;;;4917354;29;20099;-84
2021/03/19 04:40:42;;;;;;;8.68;3.30;;;2.10;92.80;;;;;;4918182;29;20084;-83
2021/03/19 04:43:09;;;;;;;9.18;3.00;;;2.10;92.90;;;;;;4917782;29;20083;-84
2021/03/19 04:45:41;;;;;;;8.30;3.13;;;2.10;93.20;;;;;;4917208;29;20079;-84
2021/03/19 04:48:07;;;;;;;6.65;3.05;;;2.10;93.10;;;;;;4918095;29;20088;-83
2021/03/19 04:50:34;;;;;;;6.85;2.88;;;2.10;93.10;;;;;;4917711;29;20091;-83
2021/03/19 04:53:01;;;;;;;8.00;3.28;;;2.10;93.10;;;;;;4915846;29;20072;-83
2021/03/19 04:55:27;;;;;;;8.13;3.10;;;2.10;93.10;;;;;;4909077;29;20075;-84
2021/03/19 04:57:53;;;;;;;8.55;3.05;;;2.10;93.10;;;;;;4917266;29;20084;-83
2021/03/19 05:00:21;;;;;;;10.73;2.97;;;2.10;93.20;;;;;;4915767;29;20086;-83
2021/03/19 05:02:50;;;;;;;10.95;3.45;;;2.00;93.20;;;;;;4915169;29;20095;-83
2021/03/19 05:05:20;;;;;;;6.45;2.90;;;2.00;93.30;;;;;;4917106;29;20080;-82
2021/03/19 05:07:47;;;;;;;7.68;3.00;;;2.10;93.40;;;;;;4916878;29;20056;-83
2021/03/19 05:10:14;;;;;;;8.20;3.00;;;2.00;93.30;;;;;;4904125;29;20397;-83
2021/03/19 05:12:41;;;;;;;7.30;2.67;;;2.10;93.30;;;;;;4897794;29;20080;-83
2021/03/19 05:15:08;;;;;;;5.97;2.88;;;2.00;93.20;;;;;;4898465;29;20091;-83
2021/03/19 05:17:34;;;;;;;8.25;2.83;;;2.00;93.20;;;;;;4898145;29;20182;-83
2021/03/19 05:20:01;;;;;;;8.43;2.80;;;2.00;93.20;;;;;;4897970;29;20049;-83
2021/03/19 05:22:27;;;;;;;6.95;3.20;;;2.00;93.20;;;;;;4898101;29;20501;-83
2021/03/19 05:24:54;;;;;;;9.00;3.05;;;2.00;93.20;;;;;;4898358;29;20086;-83
2021/03/19 05:27:20;;;;;;;9.63;3.25;;;2.00;93.30;;;;;;4897502;29;20084;-83
2021/03/19 05:29:46;;;;;;;5.72;2.63;;;1.90;93.20;;;;;;4899480;29;20084;-83
2021/03/19 05:32:13;;;;;;;8.80;3.50;;;1.90;93.20;;;;;;4897934;29;20094;-83
2021/03/19 05:34:39;;;;;;;9.88;2.88;;;1.90;93.20;;;;;;4897379;29;20076;-83
2021/03/19 05:37:05;;;;;;;7.70;3.10;;;1.90;93.20;;;;;;4897929;29;20457;-83
2021/03/19 05:39:34;;;;;;;9.13;3.10;;;1.90;93.20;;;;;;4897962;29;20087;-83
2021/03/19 05:42:00;;;;;;;12.50;3.10;;;1.90;93.30;;;;;;4897519;29;20087;-83
2021/03/19 05:44:34;;;;;;;11.55;2.92;;;1.80;93.20;;;;;;4907525;29;20082;-83
2021/03/19 05:47:08;;;;;;;9.18;3.15;;;1.80;93.30;;;;;;4911552;29;20111;-83
2021/03/19 05:49:37;;;;;;;7.32;2.67;;;1.80;93.30;;;;;;4899512;29;20084;-82
2021/03/19 05:52:13;;;;;;;7.03;3.00;;;1.80;93.20;;;;;;4897874;29;20143;-82
2021/03/19 05:54:42;;;;;;;9.02;3.13;;;1.70;93.30;;;;;;4900442;29;20091;-83
2021/03/19 05:57:30;;;;;;;7.82;2.60;;;1.70;93.30;;;;;;4916335;29;20109;-82
2021/03/19 05:59:58;;;;;;;10.45;3.15;;;1.70;93.30;;;;;;4904354;29;20087;-82
2021/03/19 06:02:28;;;;;;;7.25;2.47;;;1.70;93.20;;;;;;4914193;29;20115;-83
2021/03/19 06:05:18;;;;;;;6.47;2.83;;;1.70;93.20;;;;;;4898118;29;20417;-83
2021/03/19 06:07:57;;;;;;;7.97;2.83;;;1.60;93.20;;;;;;4910726;29;20087;-83
2021/03/19 06:10:26;;;;;;;7.38;2.75;;;1.60;93.20;;;;;;4916084;29;20056;-83
2021/03/19 06:13:13;;;;;;;8.85;3.60;;;1.60;93.10;;;;;;4916769;29;20509;-83
2021/03/19 06:15:43;;;;;;;8.05;3.08;;;1.60;93.10;;;;;;4920203;29;20084;-83
2021/03/19 06:18:24;;;;;;;10.48;3.38;;;1.60;93.10;;;;;;4919572;29;20133;-83
2021/03/19 06:21:06;;;;;;;7.88;3.03;;;1.60;93.20;;;;;;4920572;29;20080;-82
2021/03/19 06:23:33;;;;;;;8.30;2.83;;;1.60;93.30;;;;;;4919773;29;20098;-83
2021/03/19 06:26:25;;;;;;;7.55;2.75;;;1.60;93.10;;;;;;4891381;29;20104;-83
2021/03/19 06:29:11;;;;;;;10.75;3.53;;;1.60;93.00;;;;;;4888592;29;20047;-82
2021/03/19 06:32:26;;;;;;;13.15;3.80;;;1.50;92.90;;;;;;4899850;29;20058;-82
2021/03/19 06:35:08;;;;;;;11.05;3.60;;;1.60;92.90;;;;;;4919717;29;20062;-83
2021/03/19 06:37:54;;;;;;;10.63;3.65;;;1.60;92.80;;;;;;4918079;29;20076;-83
2021/03/19 06:40:41;;;;;;;9.75;3.60;;;1.60;92.80;;;;;;4906211;29;20060;-83
2021/03/19 06:43:30;;;;;;;9.45;3.13;;;1.60;92.70;;;;;;4905980;29;20059;-83
2021/03/19 06:46:55;;;;;;;9.70;3.90;;;1.60;92.60;;;;;;4889512;29;20090;-82
2021/03/19 06:49:51;;;;;;;14.48;4.40;;;1.60;92.50;;;;;;4812584;29;20085;-82
2021/03/19 06:52:37;;;;;;;6.35;2.83;;;1.60;92.50;;;;;;4886166;29;20067;-83
2021/03/19 06:55:46;;;;;;;12.40;3.55;;;1.70;92.50;;;;;;4886868;29;20049;-83
2021/03/19 06:58:45;;;;;;;13.35;3.88;;;1.60;92.40;;;;;;4886118;29;20140;-83
2021/03/19 07:01:37;;;;;;;10.10;3.88;;;1.60;92.40;;;;;;4886963;29;20124;-83
2021/03/19 07:04:41;;;;;;;8.65;3.50;;;1.60;92.40;;;;;;4888700;29;20084;-83
2021/03/19 07:07:46;;;;;;;8.15;3.35;;;1.60;92.50;;;;;;4904712;29;20135;-83
2021/03/19 07:10:50;;;;;;;10.85;4.03;;;1.70;92.50;;;;;;4905405;29;20148;-84
2021/03/19 07:14:04;;;;;;;9.48;3.72;;;1.70;92.60;;;;;;4904809;29;20056;-84
2021/03/19 07:17:08;;;;;;;17.33;4.22;;;1.70;92.60;;;;;;4905272;29;20139;-83
2021/03/19 07:20:12;;;;;;;7.93;3.22;;;1.70;92.70;;;;;;4918747;29;20055;-83
2021/03/19 07:22:47;;;;;;;8.13;3.55;;;1.70;92.70;;;;;;4919324;29;20058;-83
2021/03/19 07:25:42;;;;;;;9.88;4.57;;;1.70;92.70;;;;;;4890885;29;20049;-84
2021/03/19 07:28:37;;;;;;;11.20;3.78;;;1.80;92.90;;;;;;4885617;29;20056;-84
2021/03/19 07:31:14;;;;;;;11.13;4.57;;;1.90;93.00;;;;;;4916233;29;20481;-83
2021/03/19 07:34:05;;;;;;;8.82;4.20;;;2.00;93.00;;;;;;4917938;29;20476;-83
2021/03/19 07:36:49;;;;;;;10.32;4.57;;;2.10;93.10;;;;;;4915915;29;20053;-83
2021/03/19 07:40:17;;;;;;;9.75;4.10;;;2.10;93.10;;;;;;4900916;29;20052;-83
2021/03/19 07:43:22;;;;;;;10.63;4.60;;;2.20;93.10;;;;;;4902579;29;20056;-83
2021/03/19 07:46:37;;;;;;;10.93;4.32;;;2.30;93.10;;;;;;4904701;29;20048;-84
2021/03/19 07:49:50;;;;;;;9.50;4.00;;;2.40;93.40;;;;;;4903546;29;20048;-85
2021/03/19 07:52:51;;;;;;;9.77;4.30;;;2.60;93.20;;;;;;4904566;29;20504;-85
2021/03/19 07:56:02;;;;;;;11.48;4.47;;;2.70;93.20;;;;;;4903090;29;20048;-84
2021/03/19 07:59:01;;;;;;;11.93;4.82;;;2.80;93.20;;;;;;4900598;29;20040;-88
2021/03/19 08:01:49;;;;;;;10.18;4.18;;;2.90;93.20;;;;;;4904122;29;20052;-86
2021/03/19 08:04:48;;;;;;;9.43;4.57;;;3.10;93.20;;;;;;4889372;29;20049;-88
2021/03/19 08:07:42;;;;;;;8.88;4.43;;;3.20;93.20;;;;;;4867382;29;20097;-87
2021/03/19 08:10:40;;;;;;;11.35;4.70;;;3.30;93.10;;;;;;4879904;29;20057;-89
2021/03/19 08:13:49;;;;;;;7.60;4.40;;;3.50;93.00;;;;;;4875343;29;20049;-85
2021/03/19 08:16:37;;;;;;;10.80;5.05;;;3.60;92.90;;;;;;4869555;29;20056;-85
2021/03/19 08:19:29;;;;;;;11.80;4.78;;;3.70;92.90;;;;;;4875487;29;20410;-86
2021/03/19 08:22:31;;;;;;;7.95;3.78;;;3.80;93.00;;;;;;4876101;29;20413;-83
2021/03/19 08:25:22;;;;;;;9.95;4.82;;;3.90;92.80;;;;;;4888440;29;20064;-82
2021/03/19 08:28:20;;;;;;;12.40;3.83;;;4.00;92.90;;;;;;4893353;29;20075;-87
2021/03/19 08:31:52;;;;;;;8.85;4.38;;;4.10;92.80;;;;;;4865397;29;20060;-83
2021/03/19 08:35:20;;;;;;;12.75;4.47;;;4.20;92.70;;;;;;4876106;29;20052;-83
2021/03/19 08:38:32;;;;;;;8.75;4.55;;;4.30;92.70;;;;;;4879842;29;20084;-83
2021/03/19 08:41:22;;;;;;;11.43;4.47;;;4.40;92.80;;;;;;4875441;29;20049;-83
2021/03/19 08:44:13;;;;;;;10.15;3.88;;;4.50;93.20;;;;;;4888393;29;20049;-86
2021/03/19 08:47:12;;;;;;;10.45;4.22;;;4.60;92.80;;;;;;4876945;29;20052;-84
2021/03/19 08:50:26;;;;;;;8.25;4.00;;;4.70;92.80;;;;;;4879760;29;20461;-84
2021/03/19 08:53:14;;;;;;;9.70;4.20;;;4.80;92.70;;;;;;4895469;29;20048;-85
2021/03/19 08:56:07;;;;;;;8.23;4.18;;;4.80;92.70;;;;;;4896678;29;20045;-84
2021/03/19 08:58:53;;;;;;;11.02;4.00;;;4.90;92.90;;;;;;4895204;29;20084;-85
2021/03/19 09:01:52;;;;;;;8.63;3.47;;;5.00;92.80;;;;;;4894081;29;20048;-85
2021/03/19 09:04:52;;;;;;;9.43;4.00;;;5.10;92.80;;;;;;4896664;29;20048;-84
2021/03/19 09:07:31;;;;;;;8.88;3.72;;;5.20;92.80;;;;;;4894396;29;20382;-86
2021/03/19 09:10:17;;;;;;;9.63;3.70;;;5.30;92.80;;;;;;4883141;29;20056;-85
2021/03/19 09:13:08;;;;;;;7.25;3.60;;;5.40;92.80;;;;;;4878397;29;20151;-84
2021/03/19 09:15:49;;;;;;;6.07;3.20;;;5.50;92.80;;;;;;4895533;29;20409;-85
2021/03/19 09:18:51;;;;;;;7.53;3.60;;;5.60;92.70;;;;;;4895534;29;20096;-85
2021/03/19 09:21:51;;;;;;;7.68;3.08;;;5.70;92.60;;;;;;4878718;29;20053;-84
2021/03/19 09:24:37;;;;;;;9.70;3.42;;;5.80;92.40;;;;;;4881343;29;20072;-85
2021/03/19 09:27:30;;;;;;;6.22;3.45;;;6.00;92.30;;;;;;4881752;29;20491;-85
2021/03/19 09:30:41;;;;;;;6.32;3.00;;;6.00;92.40;;;;;;4881668;29;20135;-85
2021/03/19 09:33:44;;;;;;;5.82;3.08;;;6.10;92.50;;;;;;4877528;29;20088;-86
2021/03/19 09:36:57;;;;;;;8.73;2.67;;;6.30;92.30;;;;;;4879721;29;20501;-86
2021/03/19 09:39:59;;;;;;;6.18;2.90;;;6.30;91.70;;;;;;4878947;29;20584;-85
2021/03/19 09:42:28;;;;;;;6.43;2.60;;;6.40;91.90;;;;;;4893784;29;20055;-86
2021/03/19 09:45:03;;;;;;;4.80;2.30;;;6.50;91.90;;;;;;4896326;29;20453;-86
2021/03/19 09:47:43;;;;;;;4.72;2.10;;;6.60;91.60;;;;;;4894740;29;20053;-84
2021/03/19 09:50:26;;;;;;;6.40;2.70;;;6.70;91.60;;;;;;4895913;29;20458;-84
2021/03/19 09:53:07;;;;;;;5.40;2.40;;;6.80;91.60;;;;;;4897939;29;20482;-86
2021/03/19 09:55:56;;;;;;;7.03;2.55;;;6.90;91.70;;;;;;4880841;29;20112;-86
2021/03/19 09:58:40;;;;;;;7.97;2.60;;;7.10;91.90;;;;;;4897610;29;20052;-86
2021/03/19 10:01:41;;;;;;;6.50;1.75;;;7.20;91.80;;;;;;4896845;29;20057;-86
2021/03/19 10:04:10;;;;;;;4.25;1.98;;;7.30;91.50;;;;;;4883244;29;20108;-86
2021/03/19 10:06:57;;;;;;;4.47;1.80;;;7.30;91.50;;;;;;4878658;29;20521;-89
2021/03/19 10:09:49;;;;;;;5.40;1.90;;;7.50;91.50;;;;;;4883434;29;20057;-88
2021/03/19 10:12:43;;;;;;;3.70;1.63;;;7.50;91.30;;;;;;4879054;29;20056;-86
2021/03/19 10:15:53;;;;;;;4.43;1.80;;;7.60;91.20;;;;;;4878078;29;20052;-85
2021/03/19 10:18:53;;;;;;;4.90;1.75;;;7.70;91.00;;;;;;4970188;23;20131;-87
2021/03/19 10:21:59;;;;;;;4.45;1.75;;;7.80;90.30;;;;;;4896919;29;20058;-86
2021/03/19 10:24:51;;;;;;;4.53;1.42;;;7.80;90.20;;;;;;4898089;29;20049;-86
2021/03/19 10:27:46;;;;;;;3.75;1.63;;;7.90;90.00;;;;;;4896813;29;20139;-88
2021/03/19 10:30:37;;;;;;;3.40;1.40;;;8.00;89.90;;;;;;4907430;23;20056;-86
2021/03/19 10:33:25;;;;;;;4.63;1.40;;;8.00;88.20;;;;;;4916391;29;20080;-87
2021/03/19 10:36:17;;;;;;;3.72;1.27;;;8.10;88.30;;;;;;4901739;29;20075;-87
2021/03/19 10:39:19;;;;;;;3.33;1.73;;;8.20;88.00;;;;;;4916534;29;20056;-87
2021/03/19 10:42:14;;;;;;;3.40;1.42;;;8.30;88.80;;;;;;4916379;29;20056;-86
2021/03/19 10:45:17;;;;;;;4.60;1.80;;;8.40;88.80;;;;;;4897871;29;20056;-87
2021/03/19 10:48:25;;;;;;;4.43;1.35;;;8.60;89.40;;;;;;4916543;29;20058;-86
2021/03/19 10:51:17;;;;;;;5.13;1.50;;;8.60;90.20;;;;;;4916001;29;20079;-86
2021/03/19 10:54:23;;;;;;;3.20;1.45;;;8.70;89.20;;;;;;4916469;29;20063;-87
2021/03/19 10:57:25;;;;;;;7.35;1.60;;;8.80;89.10;;;;;;4916458;29;20052;-88
2021/03/19 10:59:54;;;;;;;3.72;1.75;;;8.90;87.80;;;;;;4916494;29;20489;-87
2021/03/19 11:02:29;;;;;;;6.82;1.67;;;9.00;88.70;;;;;;4902461;29;20066;-87
2021/03/19 11:05:22;;;;;;;4.33;1.70;;;9.00;89.20;;;;;;4918970;29;20100;-88
2021/03/19 11:20:22;;;;;;;3.55;1.50;;;9.40;87.40;;;;;;4805573;29;20100;-87
2021/03/19 11:23:52;;;;;;;3.22;1.58;;;9.40;87.10;;;;;;4792339;29;20058;-87
2021/03/19 11:27:03;;;;;;;7.13;1.48;;;9.50;88.10;;;;;;4729207;29;20531;-89
2021/03/19 11:29:42;;;;;;;4.30;1.63;;;9.60;87.50;;;;;;4821601;29;20153;-88
2021/03/19 11:32:11;;;;;;;3.97;1.60;;;9.70;88.00;;;;;;4860820;29;20575;-88
2021/03/19 11:35:26;;;;;;;3.28;1.45;;;9.80;88.00;;;;;;4860159;29;20045;-87
2021/03/19 11:37:53;;;;;;;3.20;1.25;;;9.80;88.30;;;;;;4861051;29;20060;-88
2021/03/19 11:43:48;;;;;;;4.60;1.08;;;10.00;87.10;;;;;;4823956;29;20538;-87
2021/03/19 11:46:47;;;;;;;2.58;1.10;;;10.10;86.10;;;;;;4823491;29;20055;-87
2021/03/19 11:49:18;;;;;;;3.22;1.10;;;10.10;87.10;;;;;;4794367;29;20062;-88
2021/03/19 11:51:44;;;;;;;2.60;0.90;;;10.20;86.30;;;;;;4864099;29;20057;-87
2021/03/19 11:54:13;;;;;;;3.13;1.13;;;10.30;85.90;;;;;;4899050;29;20045;-88
2021/03/19 11:56:59;;;;;;;4.00;1.17;;;10.40;85.90;;;;;;4884284;29;20131;-89
2021/03/19 11:59:40;;;;;;;5.55;0.98;;;10.40;84.90;;;;;;4900077;29;20553;-89
2021/03/19 12:02:51;;;;;;;3.83;1.08;;;10.40;84.50;;;;;;4898995;29;20490;-89
2021/03/19 12:05:20;;;;;;;2.97;1.10;;;10.50;85.30;;;;;;4899686;29;20048;-87
2021/03/19 12:07:48;;;;;;;3.53;1.00;;;10.60;86.30;;;;;;4899323;29;20072;-89
2021/03/19 12:10:28;;;;;;;3.50;0.95;;;10.70;86.30;;;;;;4899531;29;20044;-88
2021/03/19 12:13:29;;;;;;;1.35;0.70;;;10.80;86.00;;;;;;4881840;29;20049;-87
2021/03/19 12:16:00;;;;;;;1.85;0.65;;;10.80;82.80;;;;;;4898944;29;20493;-88
2021/03/19 12:18:28;;;;;;;2.95;0.80;;;10.60;78.60;;;;;;4899665;29;20063;-88
2021/03/19 12:21:00;;;;;;;3.40;0.80;;;10.50;80.90;;;;;;4879364;29;20052;-89
2021/03/19 12:23:56;;;;;;;4.10;0.90;;;10.50;81.50;;;;;;4865359;29;20135;-88
2021/03/19 12:26:47;;;;;;;2.22;0.75;;;10.60;83.00;;;;;;4863141;29;20063;-89
2021/03/19 12:29:14;;;;;;;1.75;0.80;;;10.70;81.70;;;;;;4879892;29;20478;-88
2021/03/19 12:32:00;;;;;;;4.10;1.33;;;10.60;81.90;;;;;;4863910;29;20053;-89
2021/03/19 12:34:26;;;;;;;1.70;0.80;;;10.70;83.10;;;;;;4880433;29;20056;-87
2021/03/19 12:36:52;;;;;;;1.42;0.80;;;10.80;83.30;;;;;;4880135;29;20486;-89
2021/03/19 12:39:19;;;;;;;2.95;0.63;;;10.80;82.60;;;;;;4880448;29;20049;-89
2021/03/19 12:42:04;;;;;;;2.65;0.80;;;10.80;80.70;;;;;;4881163;29;20063;-88
2021/03/19 12:44:30;;;;;;;2.25;0.60;;;10.70;78.90;;;;;;4879971;29;20082;-88
2021/03/19 12:46:56;;;;;;;4.20;0.80;;;10.70;79.00;;;;;;4880613;29;20181;-89
2021/03/19 12:49:53;;;;;;;1.60;0.70;;;10.60;79.80;;;;;;4880279;29;20073;-89
2021/03/19 12:52:25;;;;;;;1.63;0.80;;;10.70;80.60;;;;;;4880448;29;20108;-89
2021/03/19 12:54:53;;;;;;;1.98;0.70;;;10.70;78.80;;;;;;4878163;29;20057;-88
2021/03/19 12:57:19;;;;;;;3.17;0.70;;;10.80;81.00;;;;;;4876262;29;20057;-86
2021/03/19 12:59:45;;;;;;;2.30;0.68;;;10.90;80.70;;;;;;4877285;29;20542;-84
2021/03/19 13:02:10;;;;;;;1.35;0.63;;;10.80;79.10;;;;;;4878671;29;20097;-87
2021/03/19 13:04:36;;;;;;;1.98;0.40;;;10.70;78.10;;;;;;4877794;29;20128;-84
2021/03/19 13:07:09;;;;;;;2.65;0.50;;;10.70;79.40;;;;;;4878784;29;20049;-89
2021/03/19 13:09:54;;;;;;;5.25;0.60;;;10.80;79.10;;;;;;4876117;29;20053;-86
2021/03/19 13:12:37;;;;;;;1.90;0.50;;;10.70;75.60;;;;;;4876305;29;20068;-89
2021/03/19 13:15:46;;;;;;;3.07;0.70;;;10.60;73.90;;;;;;4848000;29;20525;-87
2021/03/19 13:22:06;;;;;;;1.13;0.50;;;10.70;79.80;;;;;;4711232;30;20553;-89
2021/03/19 13:24:42;;;;;;;1.23;0.40;;;10.80;80.30;;;;;;4765769;29;20059;-87
2021/03/19 13:27:11;;;;;;;0.77;0.40;;;10.90;80.10;;;;;;4793487;29;20055;-90
2021/03/19 13:29:44;;;;;;;2.03;0.50;;;10.80;78.50;;;;;;4818504;29;20495;-87
2021/03/19 13:32:13;;;;;;;;;;;10.80;77.50;;;;;;4876691;29;20053;-89
2021/03/19 13:34:45;;;;;;;2.33;0.60;;;10.70;73.20;;;;;;4879341;29;20314;-90
2021/03/19 13:37:33;;;;;;;2.78;0.60;;;10.60;75.50;;;;;;4863132;29;20574;-90
2021/03/19 13:40:07;;;;;;;2.47;0.45;;;10.60;74.90;;;;;;4878181;29;20418;-89
2021/03/19 13:42:33;;;;;;;2.22;0.50;;;10.60;73.90;;;;;;4879190;29;20064;-85
2021/03/19 13:44:58;;;;;;;1.17;0.43;;;10.70;75.60;;;;;;4879577;29;20049;-89
2021/03/19 13:47:24;;;;;;;2.45;0.50;;;10.70;77.40;;;;;;4878781;29;20128;-85
2021/03/19 13:49:50;;;;;;;2.20;0.50;;;10.90;78.20;;;;;;4879450;29;20052;-87
2021/03/19 13:52:24;;;;;;;1.52;0.40;;;11.00;78.90;;;;;;4879126;29;20135;-87
2021/03/19 13:55:11;;;;;;;0.57;0.30;;;11.00;76.30;;;;;;4870097;29;20088;-88
2021/03/19 13:58:00;;;;;;;2.03;0.40;;;10.90;75.00;;;;;;4876648;29;20060;-89
2021/03/19 14:00:39;;;;;;;1.05;0.40;;;10.90;75.90;;;;;;4878261;29;20056;-88
2021/03/19 14:03:11;;;;;;;1.65;0.32;;;10.90;75.90;;;;;;4879032;29;20524;-89
2021/03/19 14:05:46;;;;;;;1.17;0.32;;;10.80;72.00;;;;;;4879086;29;20050;-87
2021/03/19 14:08:22;;;;;;;1.50;0.50;;;10.80;73.90;;;;;;4876029;29;20134;-90
2021/03/19 14:10:47;;;;;;;3.50;0.50;;;10.80;74.80;;;;;;4877040;29;20045;-88
2021/03/19 14:13:16;;;;;;;1.50;0.50;;;10.80;74.90;;;;;;4878858;29;20417;-87
2021/03/19 14:15:58;;;;;;;1.20;0.30;;;10.80;75.80;;;;;;4878449;29;20053;-89
2021/03/19 14:18:27;;;;;;;1.42;0.45;;;10.80;74.00;;;;;;4878666;29;20057;-88
2021/03/19 14:21:14;;;;;;;2.05;0.30;;;10.80;76.00;;;;;;4878357;29;20049;-90